sensor_id;sensor_type;location;lat;lon;timestamp;P1;durP1;ratioP1;P2;durP2;ratioP2
51525;SDS011;37611;51.794;21.590;2023-06-14T00:02:57;7.40;;;5.50;;
51525;SDS011;37611;51.794;21.590;2023-06-14T00:06:59;7.00;;;6.10;;
51525;SDS011;37611;51.794;21.590;2023-06-14T00:11:01;6.90;;;6.20;;
51525;SDS011;37611;51.794;21.590;2023-06-14T00:15:03;7.10;;;6.30;;
51525;SDS011;37611;51.794;21.590;2023-06-14T00:19:05;6.30;;;5.70;;
51525;SDS011;37611;51.794;21.590;2023-06-14T00:23:07;7.70;;;6.30;;
51525;SDS011;37611;51.794;21.590;2023-06-14T00:27:09;10.90;;;8.10;;
51525;SDS011;37611;51.794;21.590;2023-06-14T00:31:11;8.40;;;6.30;;
51525;SDS011;37611;51.794;21.590;2023-06-14T00:35:13;7.10;;;6.20;;
51525;SDS011;37611;51.794;21.590;2023-06-14T00:39:15;6.80;;;6.00;;
51525;SDS011;37611;51.794;21.590;2023-06-14T00:43:17;8.20;;;6.10;;
51525;SDS011;37611;51.794;21.590;2023-06-14T00:47:19;8.10;;;6.20;;
51525;SDS011;37611;51.794;21.590;2023-06-14T00:51:21;6.90;;;6.20;;
51525;SDS011;37611;51.794;21.590;2023-06-14T00:55:23;8.20;;;6.20;;
51525;SDS011;37611;51.794;21.590;2023-06-14T00:59:25;9.10;;;6.10;;
51525;SDS011;37611;51.794;21.590;2023-06-14T01:03:27;8.40;;;6.60;;
51525;SDS011;37611;51.794;21.590;2023-06-14T01:07:46;7.40;;;6.40;;
51525;SDS011;37611;51.794;21.590;2023-06-14T01:11:59;9.20;;;6.40;;
51525;SDS011;37611;51.794;21.590;2023-06-14T01:16:08;7.80;;;6.20;;
51525;SDS011;37611;51.794;21.590;2023-06-14T01:20:11;8.40;;;6.60;;
51525;SDS011;37611;51.794;21.590;2023-06-14T01:24:16;9.50;;;6.80;;
51525;SDS011;37611;51.794;21.590;2023-06-14T01:28:21;12.30;;;6.50;;
51525;SDS011;37611;51.794;21.590;2023-06-14T01:32:26;8.20;;;6.50;;
51525;SDS011;37611;51.794;21.590;2023-06-14T01:36:29;8.00;;;6.30;;
51525;SDS011;37611;51.794;21.590;2023-06-14T01:40:31;10.30;;;7.40;;
51525;SDS011;37611;51.794;21.590;2023-06-14T01:44:36;8.30;;;7.10;;
51525;SDS011;37611;51.794;21.590;2023-06-14T01:48:39;6.90;;;6.30;;
51525;SDS011;37611;51.794;21.590;2023-06-14T01:52:41;7.80;;;6.80;;
51525;SDS011;37611;51.794;21.590;2023-06-14T01:56:43;9.60;;;6.80;;
51525;SDS011;37611;51.794;21.590;2023-06-14T02:00:44;7.00;;;6.30;;
51525;SDS011;37611;51.794;21.590;2023-06-14T02:04:46;8.30;;;7.30;;
51525;SDS011;37611;51.794;21.590;2023-06-14T02:08:48;10.10;;;7.50;;
51525;SDS011;37611;51.794;21.590;2023-06-14T02:12:51;8.90;;;7.00;;
51525;SDS011;37611;51.794;21.590;2023-06-14T02:16:53;7.20;;;6.50;;
51525;SDS011;37611;51.794;21.590;2023-06-14T02:20:54;9.90;;;6.90;;
51525;SDS011;37611;51.794;21.590;2023-06-14T02:24:56;9.20;;;8.30;;
51525;SDS011;37611;51.794;21.590;2023-06-14T02:28:58;9.60;;;7.00;;
51525;SDS011;37611;51.794;21.590;2023-06-14T02:33:00;10.10;;;7.70;;
51525;SDS011;37611;51.794;21.590;2023-06-14T02:37:02;10.10;;;7.10;;
51525;SDS011;37611;51.794;21.590;2023-06-14T02:41:04;8.50;;;7.10;;
51525;SDS011;37611;51.794;21.590;2023-06-14T02:45:07;8.90;;;7.60;;
51525;SDS011;37611;51.794;21.590;2023-06-14T02:49:10;7.80;;;6.80;;
51525;SDS011;37611;51.794;21.590;2023-06-14T02:53:12;8.70;;;6.80;;
51525;SDS011;37611;51.794;21.590;2023-06-14T02:57:14;9.50;;;7.80;;
51525;SDS011;37611;51.794;21.590;2023-06-14T03:01:16;8.60;;;7.50;;
51525;SDS011;37611;51.794;21.590;2023-06-14T03:05:18;8.20;;;7.30;;
51525;SDS011;37611;51.794;21.590;2023-06-14T03:09:22;8.90;;;7.00;;
51525;SDS011;37611;51.794;21.590;2023-06-14T03:13:24;8.10;;;7.00;;
51525;SDS011;37611;51.794;21.590;2023-06-14T03:17:26;8.00;;;7.00;;
51525;SDS011;37611;51.794;21.590;2023-06-14T03:21:31;8.00;;;7.30;;
51525;SDS011;37611;51.794;21.590;2023-06-14T03:25:33;8.40;;;6.80;;
51525;SDS011;37611;51.794;21.590;2023-06-14T03:29:37;8.60;;;6.70;;
51525;SDS011;37611;51.794;21.590;2023-06-14T03:33:39;10.80;;;8.40;;
51525;SDS011;37611;51.794;21.590;2023-06-14T03:37:41;7.90;;;7.10;;
51525;SDS011;37611;51.794;21.590;2023-06-14T03:41:42;8.20;;;7.10;;
51525;SDS011;37611;51.794;21.590;2023-06-14T03:45:44;7.40;;;6.70;;
51525;SDS011;37611;51.794;21.590;2023-06-14T03:49:46;8.40;;;7.30;;
51525;SDS011;37611;51.794;21.590;2023-06-14T03:53:48;10.00;;;7.10;;
51525;SDS011;37611;51.794;21.590;2023-06-14T03:57:50;8.90;;;7.00;;
51525;SDS011;37611;51.794;21.590;2023-06-14T04:01:54;8.60;;;7.50;;
51525;SDS011;37611;51.794;21.590;2023-06-14T04:05:56;10.60;;;7.50;;
51525;SDS011;37611;51.794;21.590;2023-06-14T04:10:01;13.50;;;7.40;;
51525;SDS011;37611;51.794;21.590;2023-06-14T04:14:03;9.10;;;7.30;;
51525;SDS011;37611;51.794;21.590;2023-06-14T04:18:05;10.30;;;7.30;;
51525;SDS011;37611;51.794;21.590;2023-06-14T04:22:06;8.40;;;6.90;;
51525;SDS011;37611;51.794;21.590;2023-06-14T04:26:08;8.00;;;7.10;;
51525;SDS011;37611;51.794;21.590;2023-06-14T04:30:12;7.40;;;6.60;;
51525;SDS011;37611;51.794;21.590;2023-06-14T04:34:14;8.10;;;7.00;;
51525;SDS011;37611;51.794;21.590;2023-06-14T04:38:19;10.70;;;6.70;;
51525;SDS011;37611;51.794;21.590;2023-06-14T04:42:26;8.40;;;7.00;;
51525;SDS011;37611;51.794;21.590;2023-06-14T04:46:31;9.80;;;7.50;;
51525;SDS011;37611;51.794;21.590;2023-06-14T04:50:33;9.10;;;7.20;;
51525;SDS011;37611;51.794;21.590;2023-06-14T04:54:36;8.30;;;6.60;;
51525;SDS011;37611;51.794;21.590;2023-06-14T04:58:43;9.30;;;7.40;;
51525;SDS011;37611;51.794;21.590;2023-06-14T05:02:45;8.50;;;7.50;;
51525;SDS011;37611;51.794;21.590;2023-06-14T05:06:48;9.30;;;7.50;;
51525;SDS011;37611;51.794;21.590;2023-06-14T05:10:50;7.80;;;6.90;;
51525;SDS011;37611;51.794;21.590;2023-06-14T05:14:52;11.00;;;7.00;;
51525;SDS011;37611;51.794;21.590;2023-06-14T05:18:54;18.50;;;6.90;;
51525;SDS011;37611;51.794;21.590;2023-06-14T05:22:56;8.50;;;7.20;;
51525;SDS011;37611;51.794;21.590;2023-06-14T05:26:58;9.70;;;6.60;;
51525;SDS011;37611;51.794;21.590;2023-06-14T05:31:00;8.70;;;6.90;;
51525;SDS011;37611;51.794;21.590;2023-06-14T05:35:02;10.90;;;6.30;;
51525;SDS011;37611;51.794;21.590;2023-06-14T05:39:04;7.40;;;6.60;;
51525;SDS011;37611;51.794;21.590;2023-06-14T05:43:07;8.10;;;6.70;;
51525;SDS011;37611;51.794;21.590;2023-06-14T05:47:08;7.10;;;6.10;;
51525;SDS011;37611;51.794;21.590;2023-06-14T05:51:10;11.70;;;5.50;;
51525;SDS011;37611;51.794;21.590;2023-06-14T05:55:13;7.70;;;5.90;;
51525;SDS011;37611;51.794;21.590;2023-06-14T05:59:14;6.70;;;5.00;;
51525;SDS011;37611;51.794;21.590;2023-06-14T06:03:16;7.70;;;5.40;;
51525;SDS011;37611;51.794;21.590;2023-06-14T06:07:18;5.70;;;5.10;;
51525;SDS011;37611;51.794;21.590;2023-06-14T06:11:19;5.50;;;4.60;;
51525;SDS011;37611;51.794;21.590;2023-06-14T06:15:21;7.40;;;4.60;;
51525;SDS011;37611;51.794;21.590;2023-06-14T06:19:23;4.90;;;4.40;;
51525;SDS011;37611;51.794;21.590;2023-06-14T06:23:25;4.80;;;4.30;;
51525;SDS011;37611;51.794;21.590;2023-06-14T06:27:27;8.80;;;4.40;;
51525;SDS011;37611;51.794;21.590;2023-06-14T06:31:29;7.00;;;4.80;;
51525;SDS011;37611;51.794;21.590;2023-06-14T06:35:31;8.00;;;4.50;;
51525;SDS011;37611;51.794;21.590;2023-06-14T06:39:34;6.30;;;4.30;;
51525;SDS011;37611;51.794;21.590;2023-06-14T06:43:36;7.70;;;4.20;;
51525;SDS011;37611;51.794;21.590;2023-06-14T06:47:38;5.90;;;3.90;;
51525;SDS011;37611;51.794;21.590;2023-06-14T06:51:43;7.20;;;4.20;;
51525;SDS011;37611;51.794;21.590;2023-06-14T06:55:45;7.30;;;4.90;;
51525;SDS011;37611;51.794;21.590;2023-06-14T06:59:47;5.50;;;4.50;;
51525;SDS011;37611;51.794;21.590;2023-06-14T07:03:49;6.10;;;4.70;;
51525;SDS011;37611;51.794;21.590;2023-06-14T07:07:51;5.90;;;4.20;;
51525;SDS011;37611;51.794;21.590;2023-06-14T07:11:53;6.30;;;5.00;;
51525;SDS011;37611;51.794;21.590;2023-06-14T07:15:54;8.10;;;4.20;;
51525;SDS011;37611;51.794;21.590;2023-06-14T07:19:59;6.70;;;4.30;;
51525;SDS011;37611;51.794;21.590;2023-06-14T07:24:02;7.70;;;4.50;;
51525;SDS011;37611;51.794;21.590;2023-06-14T07:28:04;5.50;;;4.50;;
51525;SDS011;37611;51.794;21.590;2023-06-14T07:32:07;6.90;;;4.00;;
51525;SDS011;37611;51.794;21.590;2023-06-14T07:36:09;8.30;;;5.20;;
51525;SDS011;37611;51.794;21.590;2023-06-14T07:40:11;5.30;;;4.00;;
51525;SDS011;37611;51.794;21.590;2023-06-14T07:44:14;5.40;;;4.20;;
51525;SDS011;37611;51.794;21.590;2023-06-14T07:48:15;6.40;;;3.80;;
51525;SDS011;37611;51.794;21.590;2023-06-14T07:52:18;4.10;;;3.50;;
51525;SDS011;37611;51.794;21.590;2023-06-14T07:56:19;7.80;;;4.10;;
51525;SDS011;37611;51.794;21.590;2023-06-14T08:00:22;6.70;;;3.50;;
51525;SDS011;37611;51.794;21.590;2023-06-14T08:04:23;9.80;;;3.70;;
51525;SDS011;37611;51.794;21.590;2023-06-14T08:08:26;6.90;;;3.80;;
51525;SDS011;37611;51.794;21.590;2023-06-14T08:12:28;6.50;;;4.10;;
51525;SDS011;37611;51.794;21.590;2023-06-14T08:16:30;4.80;;;3.70;;
51525;SDS011;37611;51.794;21.590;2023-06-14T08:20:32;7.50;;;3.90;;
51525;SDS011;37611;51.794;21.590;2023-06-14T08:24:36;5.50;;;4.10;;
51525;SDS011;37611;51.794;21.590;2023-06-14T08:28:38;6.00;;;3.60;;
51525;SDS011;37611;51.794;21.590;2023-06-14T08:32:39;7.60;;;3.70;;
51525;SDS011;37611;51.794;21.590;2023-06-14T08:36:41;6.40;;;3.80;;
51525;SDS011;37611;51.794;21.590;2023-06-14T08:40:43;7.00;;;4.30;;
51525;SDS011;37611;51.794;21.590;2023-06-14T08:44:49;6.40;;;3.90;;
51525;SDS011;37611;51.794;21.590;2023-06-14T08:48:51;5.70;;;3.80;;
51525;SDS011;37611;51.794;21.590;2023-06-14T08:52:54;6.90;;;4.10;;
51525;SDS011;37611;51.794;21.590;2023-06-14T08:56:58;11.60;;;4.40;;
51525;SDS011;37611;51.794;21.590;2023-06-14T09:01:01;6.00;;;3.80;;
51525;SDS011;37611;51.794;21.590;2023-06-14T09:05:03;6.10;;;4.20;;
51525;SDS011;37611;51.794;21.590;2023-06-14T09:09:05;7.40;;;4.20;;
51525;SDS011;37611;51.794;21.590;2023-06-14T09:13:08;4.90;;;3.20;;
51525;SDS011;37611;51.794;21.590;2023-06-14T09:17:12;6.00;;;3.70;;
51525;SDS011;37611;51.794;21.590;2023-06-14T09:21:15;4.90;;;3.70;;
51525;SDS011;37611;51.794;21.590;2023-06-14T09:25:18;4.80;;;3.70;;
51525;SDS011;37611;51.794;21.590;2023-06-14T09:29:20;7.50;;;3.70;;
51525;SDS011;37611;51.794;21.590;2023-06-14T09:33:21;6.60;;;4.10;;
51525;SDS011;37611;51.794;21.590;2023-06-14T09:37:30;8.30;;;4.00;;
51525;SDS011;37611;51.794;21.590;2023-06-14T09:41:33;11.60;;;3.90;;
51525;SDS011;37611;51.794;21.590;2023-06-14T09:45:39;8.60;;;4.20;;
51525;SDS011;37611;51.794;21.590;2023-06-14T09:49:42;6.30;;;4.10;;
51525;SDS011;37611;51.794;21.590;2023-06-14T09:53:44;6.50;;;4.40;;
51525;SDS011;37611;51.794;21.590;2023-06-14T09:57:48;4.60;;;3.90;;
51525;SDS011;37611;51.794;21.590;2023-06-14T10:01:52;6.40;;;4.20;;
51525;SDS011;37611;51.794;21.590;2023-06-14T10:05:59;4.40;;;3.70;;
51525;SDS011;37611;51.794;21.590;2023-06-14T10:10:06;6.90;;;4.10;;
51525;SDS011;37611;51.794;21.590;2023-06-14T10:14:09;4.80;;;3.60;;
51525;SDS011;37611;51.794;21.590;2023-06-14T10:22:36;8.20;;;3.30;;
51525;SDS011;37611;51.794;21.590;2023-06-14T10:26:53;5.80;;;3.60;;
51525;SDS011;37611;51.794;21.590;2023-06-14T10:31:06;6.80;;;3.30;;
51525;SDS011;37611;51.794;21.590;2023-06-14T10:35:08;6.20;;;2.60;;
51525;SDS011;37611;51.794;21.590;2023-06-14T10:39:17;5.80;;;3.10;;
51525;SDS011;37611;51.794;21.590;2023-06-14T10:43:21;7.40;;;2.70;;
51525;SDS011;37611;51.794;21.590;2023-06-14T10:47:36;4.80;;;2.70;;
51525;SDS011;37611;51.794;21.590;2023-06-14T10:51:42;3.60;;;2.50;;
51525;SDS011;37611;51.794;21.590;2023-06-14T10:55:50;4.20;;;2.40;;
51525;SDS011;37611;51.794;21.590;2023-06-14T10:59:52;4.50;;;2.20;;
51525;SDS011;37611;51.794;21.590;2023-06-14T11:03:54;4.70;;;2.40;;
51525;SDS011;37611;51.794;21.590;2023-06-14T11:08:11;6.90;;;2.00;;
51525;SDS011;37611;51.794;21.590;2023-06-14T11:12:17;3.90;;;2.40;;
51525;SDS011;37611;51.794;21.590;2023-06-14T11:16:19;4.60;;;2.10;;
51525;SDS011;37611;51.794;21.590;2023-06-14T11:20:23;25.00;;;3.70;;
51525;SDS011;37611;51.794;21.590;2023-06-14T11:24:27;4.10;;;2.40;;
51525;SDS011;37611;51.794;21.590;2023-06-14T11:28:36;6.00;;;2.70;;
51525;SDS011;37611;51.794;21.590;2023-06-14T11:32:38;2.90;;;2.00;;
51525;SDS011;37611;51.794;21.590;2023-06-14T11:36:42;4.60;;;2.30;;
51525;SDS011;37611;51.794;21.590;2023-06-14T11:40:44;5.00;;;2.50;;
51525;SDS011;37611;51.794;21.590;2023-06-14T11:44:46;3.10;;;2.10;;
51525;SDS011;37611;51.794;21.590;2023-06-14T11:48:50;6.10;;;2.40;;
51525;SDS011;37611;51.794;21.590;2023-06-14T11:52:56;3.40;;;2.50;;
51525;SDS011;37611;51.794;21.590;2023-06-14T11:57:01;6.10;;;3.00;;
51525;SDS011;37611;51.794;21.590;2023-06-14T12:01:03;3.60;;;2.60;;
51525;SDS011;37611;51.794;21.590;2023-06-14T12:05:06;5.80;;;2.80;;
51525;SDS011;37611;51.794;21.590;2023-06-14T12:09:11;6.70;;;3.60;;
51525;SDS011;37611;51.794;21.590;2023-06-14T12:13:19;2.70;;;2.30;;
51525;SDS011;37611;51.794;21.590;2023-06-14T12:17:22;6.20;;;3.10;;
51525;SDS011;37611;51.794;21.590;2023-06-14T12:21:24;5.20;;;3.20;;
51525;SDS011;37611;51.794;21.590;2023-06-14T12:25:33;6.20;;;3.40;;
51525;SDS011;37611;51.794;21.590;2023-06-14T12:29:37;6.30;;;3.60;;
51525;SDS011;37611;51.794;21.590;2023-06-14T12:33:40;8.20;;;4.00;;
51525;SDS011;37611;51.794;21.590;2023-06-14T12:37:42;14.50;;;4.50;;
51525;SDS011;37611;51.794;21.590;2023-06-14T12:41:44;5.00;;;3.80;;
51525;SDS011;37611;51.794;21.590;2023-06-14T12:45:46;7.50;;;3.80;;
51525;SDS011;37611;51.794;21.590;2023-06-14T12:49:48;5.50;;;3.90;;
51525;SDS011;37611;51.794;21.590;2023-06-14T12:53:49;5.00;;;3.50;;
51525;SDS011;37611;51.794;21.590;2023-06-14T12:57:51;4.00;;;3.50;;
51525;SDS011;37611;51.794;21.590;2023-06-14T13:01:53;6.30;;;4.10;;
51525;SDS011;37611;51.794;21.590;2023-06-14T13:05:55;6.50;;;3.80;;
51525;SDS011;37611;51.794;21.590;2023-06-14T13:09:57;5.60;;;3.70;;
51525;SDS011;37611;51.794;21.590;2023-06-14T13:13:59;5.20;;;3.90;;
51525;SDS011;37611;51.794;21.590;2023-06-14T13:18:01;9.20;;;3.80;;
51525;SDS011;37611;51.794;21.590;2023-06-14T13:22:04;7.90;;;4.60;;
51525;SDS011;37611;51.794;21.590;2023-06-14T13:26:06;5.90;;;4.70;;
51525;SDS011;37611;51.794;21.590;2023-06-14T13:30:08;9.10;;;5.10;;
51525;SDS011;37611;51.794;21.590;2023-06-14T13:34:11;7.00;;;5.00;;
51525;SDS011;37611;51.794;21.590;2023-06-14T13:38:12;7.10;;;5.20;;
51525;SDS011;37611;51.794;21.590;2023-06-14T13:42:16;9.00;;;4.80;;
51525;SDS011;37611;51.794;21.590;2023-06-14T13:46:18;7.60;;;5.60;;
51525;SDS011;37611;51.794;21.590;2023-06-14T13:50:19;13.00;;;6.60;;
51525;SDS011;37611;51.794;21.590;2023-06-14T13:54:21;7.50;;;6.70;;
51525;SDS011;37611;51.794;21.590;2023-06-14T13:58:23;5.90;;;5.40;;
51525;SDS011;37611;51.794;21.590;2023-06-14T14:02:29;9.10;;;6.00;;
51525;SDS011;37611;51.794;21.590;2023-06-14T14:06:31;9.90;;;6.00;;
51525;SDS011;37611;51.794;21.590;2023-06-14T14:10:33;7.90;;;5.80;;
51525;SDS011;37611;51.794;21.590;2023-06-14T14:14:34;9.10;;;5.80;;
51525;SDS011;37611;51.794;21.590;2023-06-14T14:18:36;6.30;;;5.30;;
51525;SDS011;37611;51.794;21.590;2023-06-14T14:22:39;7.00;;;5.60;;
51525;SDS011;37611;51.794;21.590;2023-06-14T14:26:40;10.40;;;6.10;;
51525;SDS011;37611;51.794;21.590;2023-06-14T14:30:42;7.80;;;6.10;;
51525;SDS011;37611;51.794;21.590;2023-06-14T14:34:44;5.90;;;5.30;;
51525;SDS011;37611;51.794;21.590;2023-06-14T14:38:46;7.50;;;6.20;;
51525;SDS011;37611;51.794;21.590;2023-06-14T14:42:48;8.70;;;5.80;;
51525;SDS011;37611;51.794;21.590;2023-06-14T14:46:50;9.80;;;5.80;;
51525;SDS011;37611;51.794;21.590;2023-06-14T14:50:52;9.20;;;6.70;;
51525;SDS011;37611;51.794;21.590;2023-06-14T14:54:53;7.90;;;6.10;;
51525;SDS011;37611;51.794;21.590;2023-06-14T14:58:55;9.40;;;6.00;;
51525;SDS011;37611;51.794;21.590;2023-06-14T15:02:57;9.10;;;6.00;;
51525;SDS011;37611;51.794;21.590;2023-06-14T15:06:59;9.90;;;6.50;;
51525;SDS011;37611;51.794;21.590;2023-06-14T15:11:01;8.30;;;6.70;;
51525;SDS011;37611;51.794;21.590;2023-06-14T15:15:04;8.40;;;5.80;;
51525;SDS011;37611;51.794;21.590;2023-06-14T15:19:07;10.70;;;6.50;;
51525;SDS011;37611;51.794;21.590;2023-06-14T15:23:08;9.10;;;6.30;;
51525;SDS011;37611;51.794;21.590;2023-06-14T15:27:11;9.30;;;6.90;;
51525;SDS011;37611;51.794;21.590;2023-06-14T15:31:14;10.80;;;6.60;;
51525;SDS011;37611;51.794;21.590;2023-06-14T15:35:16;9.60;;;6.00;;
51525;SDS011;37611;51.794;21.590;2023-06-14T15:39:22;8.90;;;6.20;;
51525;SDS011;37611;51.794;21.590;2023-06-14T15:43:24;8.30;;;6.30;;
51525;SDS011;37611;51.794;21.590;2023-06-14T15:47:26;7.30;;;6.20;;
51525;SDS011;37611;51.794;21.590;2023-06-14T15:51:28;9.40;;;6.40;;
51525;SDS011;37611;51.794;21.590;2023-06-14T15:55:30;7.60;;;6.40;;
51525;SDS011;37611;51.794;21.590;2023-06-14T15:59:32;10.20;;;6.40;;
51525;SDS011;37611;51.794;21.590;2023-06-14T16:03:34;10.50;;;7.90;;
51525;SDS011;37611;51.794;21.590;2023-06-14T16:07:36;9.40;;;6.90;;
51525;SDS011;37611;51.794;21.590;2023-06-14T16:11:37;8.50;;;6.50;;
51525;SDS011;37611;51.794;21.590;2023-06-14T16:15:39;9.00;;;6.30;;
51525;SDS011;37611;51.794;21.590;2023-06-14T16:19:41;9.70;;;6.90;;
51525;SDS011;37611;51.794;21.590;2023-06-14T16:23:44;10.00;;;6.30;;
51525;SDS011;37611;51.794;21.590;2023-06-14T16:27:46;7.00;;;6.10;;
51525;SDS011;37611;51.794;21.590;2023-06-14T16:31:48;9.00;;;7.00;;
51525;SDS011;37611;51.794;21.590;2023-06-14T16:35:50;10.00;;;6.90;;
51525;SDS011;37611;51.794;21.590;2023-06-14T16:39:52;11.20;;;7.80;;
51525;SDS011;37611;51.794;21.590;2023-06-14T16:43:56;9.40;;;7.40;;
51525;SDS011;37611;51.794;21.590;2023-06-14T16:47:58;9.60;;;7.20;;
51525;SDS011;37611;51.794;21.590;2023-06-14T16:52:00;9.80;;;7.30;;
51525;SDS011;37611;51.794;21.590;2023-06-14T16:56:02;12.70;;;9.60;;
51525;SDS011;37611;51.794;21.590;2023-06-14T17:00:05;15.90;;;12.80;;
51525;SDS011;37611;51.794;21.590;2023-06-14T17:04:07;8.20;;;7.30;;
51525;SDS011;37611;51.794;21.590;2023-06-14T17:08:09;8.60;;;6.80;;
51525;SDS011;37611;51.794;21.590;2023-06-14T17:12:11;9.00;;;7.50;;
51525;SDS011;37611;51.794;21.590;2023-06-14T17:16:13;14.70;;;9.50;;
51525;SDS011;37611;51.794;21.590;2023-06-14T17:20:15;10.90;;;8.90;;
51525;SDS011;37611;51.794;21.590;2023-06-14T17:24:17;10.90;;;9.10;;
51525;SDS011;37611;51.794;21.590;2023-06-14T17:28:20;12.00;;;9.30;;
51525;SDS011;37611;51.794;21.590;2023-06-14T17:32:21;17.90;;;16.30;;
51525;SDS011;37611;51.794;21.590;2023-06-14T17:36:23;15.80;;;9.50;;
51525;SDS011;37611;51.794;21.590;2023-06-14T17:40:25;7.90;;;7.10;;
51525;SDS011;37611;51.794;21.590;2023-06-14T17:44:26;14.30;;;12.20;;
51525;SDS011;37611;51.794;21.590;2023-06-14T17:48:28;29.30;;;23.90;;
51525;SDS011;37611;51.794;21.590;2023-06-14T17:52:34;24.00;;;18.90;;
51525;SDS011;37611;51.794;21.590;2023-06-14T17:56:36;16.90;;;12.70;;
51525;SDS011;37611;51.794;21.590;2023-06-14T18:00:38;20.00;;;13.00;;
51525;SDS011;37611;51.794;21.590;2023-06-14T18:04:39;19.90;;;13.50;;
51525;SDS011;37611;51.794;21.590;2023-06-14T18:08:41;18.70;;;14.90;;
51525;SDS011;37611;51.794;21.590;2023-06-14T18:12:45;18.10;;;13.70;;
51525;SDS011;37611;51.794;21.590;2023-06-14T18:16:46;16.10;;;11.80;;
51525;SDS011;37611;51.794;21.590;2023-06-14T18:20:48;11.40;;;10.20;;
51525;SDS011;37611;51.794;21.590;2023-06-14T18:24:50;11.10;;;9.30;;
51525;SDS011;37611;51.794;21.590;2023-06-14T18:28:52;11.80;;;8.70;;
51525;SDS011;37611;51.794;21.590;2023-06-14T18:32:57;9.20;;;8.20;;
51525;SDS011;37611;51.794;21.590;2023-06-14T18:36:59;9.80;;;8.60;;
51525;SDS011;37611;51.794;21.590;2023-06-14T18:41:02;27.00;;;15.00;;
51525;SDS011;37611;51.794;21.590;2023-06-14T18:45:04;28.30;;;17.20;;
51525;SDS011;37611;51.794;21.590;2023-06-14T18:49:07;22.30;;;15.70;;
51525;SDS011;37611;51.794;21.590;2023-06-14T18:53:08;13.20;;;10.60;;
51525;SDS011;37611;51.794;21.590;2023-06-14T18:57:10;13.90;;;9.30;;
51525;SDS011;37611;51.794;21.590;2023-06-14T19:01:13;10.40;;;9.40;;
51525;SDS011;37611;51.794;21.590;2023-06-14T19:05:15;12.80;;;10.30;;
51525;SDS011;37611;51.794;21.590;2023-06-14T19:09:16;17.00;;;11.80;;
51525;SDS011;37611;51.794;21.590;2023-06-14T19:13:21;12.60;;;9.10;;
51525;SDS011;37611;51.794;21.590;2023-06-14T19:17:23;11.70;;;9.10;;
51525;SDS011;37611;51.794;21.590;2023-06-14T19:21:27;13.90;;;10.20;;
51525;SDS011;37611;51.794;21.590;2023-06-14T19:25:29;13.90;;;10.60;;
51525;SDS011;37611;51.794;21.590;2023-06-14T19:29:31;16.70;;;14.90;;
51525;SDS011;37611;51.794;21.590;2023-06-14T19:33:34;17.50;;;12.70;;
51525;SDS011;37611;51.794;21.590;2023-06-14T19:37:36;14.10;;;11.00;;
51525;SDS011;37611;51.794;21.590;2023-06-14T19:41:38;16.90;;;11.70;;
51525;SDS011;37611;51.794;21.590;2023-06-14T19:45:39;19.20;;;13.40;;
51525;SDS011;37611;51.794;21.590;2023-06-14T19:49:41;21.30;;;16.10;;
51525;SDS011;37611;51.794;21.590;2023-06-14T19:53:43;21.40;;;13.40;;
51525;SDS011;37611;51.794;21.590;2023-06-14T19:57:45;16.60;;;13.40;;
51525;SDS011;37611;51.794;21.590;2023-06-14T20:01:47;15.80;;;12.50;;
51525;SDS011;37611;51.794;21.590;2023-06-14T20:05:49;18.60;;;13.90;;
51525;SDS011;37611;51.794;21.590;2023-06-14T20:09:52;23.80;;;14.30;;
51525;SDS011;37611;51.794;21.590;2023-06-14T20:13:56;10.00;;;8.20;;
51525;SDS011;37611;51.794;21.590;2023-06-14T20:17:58;11.70;;;8.60;;
51525;SDS011;37611;51.794;21.590;2023-06-14T20:21:59;11.90;;;10.10;;
51525;SDS011;37611;51.794;21.590;2023-06-14T20:26:01;11.50;;;8.80;;
51525;SDS011;37611;51.794;21.590;2023-06-14T20:30:03;16.10;;;9.50;;
51525;SDS011;37611;51.794;21.590;2023-06-14T20:34:06;11.20;;;9.10;;
51525;SDS011;37611;51.794;21.590;2023-06-14T20:38:07;12.70;;;9.50;;
51525;SDS011;37611;51.794;21.590;2023-06-14T20:42:09;14.80;;;9.20;;
51525;SDS011;37611;51.794;21.590;2023-06-14T20:46:13;11.90;;;8.70;;
51525;SDS011;37611;51.794;21.590;2023-06-14T20:50:15;14.40;;;9.30;;
51525;SDS011;37611;51.794;21.590;2023-06-14T20:54:17;10.90;;;9.10;;
51525;SDS011;37611;51.794;21.590;2023-06-14T20:58:19;9.60;;;8.60;;
51525;SDS011;37611;51.794;21.590;2023-06-14T21:02:22;11.40;;;9.70;;
51525;SDS011;37611;51.794;21.590;2023-06-14T21:06:24;13.50;;;10.40;;
51525;SDS011;37611;51.794;21.590;2023-06-14T21:10:30;12.50;;;9.80;;
51525;SDS011;37611;51.794;21.590;2023-06-14T21:14:35;10.10;;;8.90;;
51525;SDS011;37611;51.794;21.590;2023-06-14T21:18:36;10.90;;;9.90;;
51525;SDS011;37611;51.794;21.590;2023-06-14T21:22:38;10.10;;;9.20;;
51525;SDS011;37611;51.794;21.590;2023-06-14T21:26:40;10.80;;;9.70;;
51525;SDS011;37611;51.794;21.590;2023-06-14T21:30:41;12.20;;;9.20;;
51525;SDS011;37611;51.794;21.590;2023-06-14T21:34:43;12.50;;;10.20;;
51525;SDS011;37611;51.794;21.590;2023-06-14T21:38:46;11.50;;;9.90;;
51525;SDS011;37611;51.794;21.590;2023-06-14T21:42:49;9.90;;;8.90;;
51525;SDS011;37611;51.794;21.590;2023-06-14T21:46:51;13.10;;;10.70;;
51525;SDS011;37611;51.794;21.590;2023-06-14T21:50:53;13.70;;;11.40;;
51525;SDS011;37611;51.794;21.590;2023-06-14T21:54:55;16.00;;;12.20;;
51525;SDS011;37611;51.794;21.590;2023-06-14T21:58:57;12.90;;;11.70;;
51525;SDS011;37611;51.794;21.590;2023-06-14T22:02:59;15.10;;;12.40;;
51525;SDS011;37611;51.794;21.590;2023-06-14T22:07:02;13.10;;;11.40;;
51525;SDS011;37611;51.794;21.590;2023-06-14T22:11:04;14.50;;;10.40;;
51525;SDS011;37611;51.794;21.590;2023-06-14T22:15:11;14.10;;;10.60;;
51525;SDS011;37611;51.794;21.590;2023-06-14T22:19:14;11.50;;;10.30;;
51525;SDS011;37611;51.794;21.590;2023-06-14T22:23:16;12.20;;;11.00;;
51525;SDS011;37611;51.794;21.590;2023-06-14T22:27:18;15.20;;;11.60;;
51525;SDS011;37611;51.794;21.590;2023-06-14T22:31:21;12.10;;;10.90;;
51525;SDS011;37611;51.794;21.590;2023-06-14T22:35:24;12.00;;;10.80;;
51525;SDS011;37611;51.794;21.590;2023-06-14T22:39:25;13.70;;;11.00;;
51525;SDS011;37611;51.794;21.590;2023-06-14T22:43:27;14.20;;;11.30;;
51525;SDS011;37611;51.794;21.590;2023-06-14T22:47:29;12.90;;;11.40;;
51525;SDS011;37611;51.794;21.590;2023-06-14T22:51:31;11.50;;;10.40;;
51525;SDS011;37611;51.794;21.590;2023-06-14T22:55:33;16.00;;;11.00;;
51525;SDS011;37611;51.794;21.590;2023-06-14T22:59:34;16.00;;;11.70;;
51525;SDS011;37611;51.794;21.590;2023-06-14T23:03:36;15.90;;;11.60;;
51525;SDS011;37611;51.794;21.590;2023-06-14T23:07:38;13.50;;;12.20;;
51525;SDS011;37611;51.794;21.590;2023-06-14T23:11:41;13.30;;;11.70;;
51525;SDS011;37611;51.794;21.590;2023-06-14T23:15:44;13.80;;;11.80;;
51525;SDS011;37611;51.794;21.590;2023-06-14T23:19:46;13.30;;;11.90;;
51525;SDS011;37611;51.794;21.590;2023-06-14T23:23:48;13.40;;;12.10;;
51525;SDS011;37611;51.794;21.590;2023-06-14T23:27:51;13.30;;;11.60;;
51525;SDS011;37611;51.794;21.590;2023-06-14T23:31:53;14.30;;;12.80;;
51525;SDS011;37611;51.794;21.590;2023-06-14T23:35:56;13.10;;;11.90;;
51525;SDS011;37611;51.794;21.590;2023-06-14T23:39:59;13.10;;;11.80;;
51525;SDS011;37611;51.794;21.590;2023-06-14T23:44:02;13.80;;;11.80;;
51525;SDS011;37611;51.794;21.590;2023-06-14T23:48:05;15.30;;;12.70;;
51525;SDS011;37611;51.794;21.590;2023-06-14T23:52:07;13.20;;;11.80;;
51525;SDS011;37611;51.794;21.590;2023-06-14T23:56:09;13.40;;;11.80;;
